sensor_id;sensor_type;location;lat;lon;timestamp;P1;durP1;ratioP1;P2;durP2;ratioP2
2858;SDS011;1437;53.250;10.406;2022-07-18T00:01:05;4.23;;;3.10;;
2858;SDS011;1437;53.250;10.406;2022-07-18T00:03:33;4.77;;;3.00;;
2858;SDS011;1437;53.250;10.406;2022-07-18T00:06:01;6.27;;;3.17;;
2858;SDS011;1437;53.250;10.406;2022-07-18T00:08:28;4.53;;;2.97;;
2858;SDS011;1437;53.250;10.406;2022-07-18T00:10:56;7.23;;;2.60;;
2858;SDS011;1437;53.250;10.406;2022-07-18T00:13:26;5.87;;;3.50;;
2858;SDS011;1437;53.250;10.406;2022-07-18T00:15:56;4.73;;;2.67;;
2858;SDS011;1437;53.250;10.406;2022-07-18T00:18:23;9.07;;;3.67;;
2858;SDS011;1437;53.250;10.406;2022-07-18T00:20:51;6.53;;;3.60;;
2858;SDS011;1437;53.250;10.406;2022-07-18T00:23:19;6.13;;;3.30;;
2858;SDS011;1437;53.250;10.406;2022-07-18T00:25:46;4.83;;;2.87;;
2858;SDS011;1437;53.250;10.406;2022-07-18T00:28:14;4.90;;;2.70;;
2858;SDS011;1437;53.250;10.406;2022-07-18T00:30:46;5.27;;;3.07;;
2858;SDS011;1437;53.250;10.406;2022-07-18T00:33:15;5.10;;;3.00;;
2858;SDS011;1437;53.250;10.406;2022-07-18T00:35:42;3.80;;;2.57;;
2858;SDS011;1437;53.250;10.406;2022-07-18T00:38:11;3.70;;;3.10;;
2858;SDS011;1437;53.250;10.406;2022-07-18T00:40:38;5.67;;;3.43;;
2858;SDS011;1437;53.250;10.406;2022-07-18T00:43:11;5.50;;;2.90;;
2858;SDS011;1437;53.250;10.406;2022-07-18T00:45:39;3.80;;;2.60;;
2858;SDS011;1437;53.250;10.406;2022-07-18T00:48:07;4.20;;;3.10;;
2858;SDS011;1437;53.250;10.406;2022-07-18T00:50:36;5.00;;;3.03;;
2858;SDS011;1437;53.250;10.406;2022-07-18T00:53:04;5.07;;;2.77;;
2858;SDS011;1437;53.250;10.406;2022-07-18T00:55:33;3.60;;;2.30;;
2858;SDS011;1437;53.250;10.406;2022-07-18T00:58:01;4.60;;;3.27;;
2858;SDS011;1437;53.250;10.406;2022-07-18T01:00:28;3.70;;;3.10;;
2858;SDS011;1437;53.250;10.406;2022-07-18T01:03:13;4.23;;;2.60;;
2858;SDS011;1437;53.250;10.406;2022-07-18T01:05:43;7.57;;;2.80;;
2858;SDS011;1437;53.250;10.406;2022-07-18T01:08:10;4.97;;;2.63;;
2858;SDS011;1437;53.250;10.406;2022-07-18T01:10:38;5.33;;;2.80;;
2858;SDS011;1437;53.250;10.406;2022-07-18T01:13:06;6.43;;;2.70;;
2858;SDS011;1437;53.250;10.406;2022-07-18T01:15:33;3.77;;;2.90;;
2858;SDS011;1437;53.250;10.406;2022-07-18T01:18:01;5.13;;;3.00;;
2858;SDS011;1437;53.250;10.406;2022-07-18T01:20:30;4.53;;;2.93;;
2858;SDS011;1437;53.250;10.406;2022-07-18T01:22:58;5.83;;;2.97;;
2858;SDS011;1437;53.250;10.406;2022-07-18T01:25:26;5.30;;;2.90;;
2858;SDS011;1437;53.250;10.406;2022-07-18T01:27:54;10.23;;;3.03;;
2858;SDS011;1437;53.250;10.406;2022-07-18T01:30:22;5.10;;;2.93;;
2858;SDS011;1437;53.250;10.406;2022-07-18T01:32:56;4.10;;;3.30;;
2858;SDS011;1437;53.250;10.406;2022-07-18T01:35:28;4.50;;;2.70;;
2858;SDS011;1437;53.250;10.406;2022-07-18T01:37:58;4.87;;;3.23;;
2858;SDS011;1437;53.250;10.406;2022-07-18T01:40:26;5.23;;;3.07;;
2858;SDS011;1437;53.250;10.406;2022-07-18T01:43:00;5.10;;;3.10;;
2858;SDS011;1437;53.250;10.406;2022-07-18T01:45:35;6.90;;;3.90;;
2858;SDS011;1437;53.250;10.406;2022-07-18T01:48:04;4.90;;;3.07;;
2858;SDS011;1437;53.250;10.406;2022-07-18T01:50:36;4.33;;;2.80;;
2858;SDS011;1437;53.250;10.406;2022-07-18T01:53:05;3.87;;;2.83;;
2858;SDS011;1437;53.250;10.406;2022-07-18T01:55:33;4.10;;;2.87;;
2858;SDS011;1437;53.250;10.406;2022-07-18T01:58:01;7.07;;;3.13;;
2858;SDS011;1437;53.250;10.406;2022-07-18T02:00:29;3.40;;;2.60;;
2858;SDS011;1437;53.250;10.406;2022-07-18T02:02:59;5.93;;;3.10;;
2858;SDS011;1437;53.250;10.406;2022-07-18T02:05:27;4.70;;;3.20;;
2858;SDS011;1437;53.250;10.406;2022-07-18T02:07:54;8.43;;;2.60;;
2858;SDS011;1437;53.250;10.406;2022-07-18T02:10:24;3.60;;;2.63;;
2858;SDS011;1437;53.250;10.406;2022-07-18T02:12:51;4.00;;;2.73;;
2858;SDS011;1437;53.250;10.406;2022-07-18T02:15:19;3.90;;;3.00;;
2858;SDS011;1437;53.250;10.406;2022-07-18T02:17:47;4.77;;;2.90;;
2858;SDS011;1437;53.250;10.406;2022-07-18T02:20:15;4.37;;;3.13;;
2858;SDS011;1437;53.250;10.406;2022-07-18T02:22:43;5.70;;;3.63;;
2858;SDS011;1437;53.250;10.406;2022-07-18T02:25:11;4.63;;;3.40;;
2858;SDS011;1437;53.250;10.406;2022-07-18T02:27:40;4.87;;;3.20;;
2858;SDS011;1437;53.250;10.406;2022-07-18T02:30:08;4.20;;;3.20;;
2858;SDS011;1437;53.250;10.406;2022-07-18T02:32:36;8.03;;;3.60;;
2858;SDS011;1437;53.250;10.406;2022-07-18T02:35:05;4.37;;;3.10;;
2858;SDS011;1437;53.250;10.406;2022-07-18T02:37:37;5.87;;;3.23;;
2858;SDS011;1437;53.250;10.406;2022-07-18T02:40:07;4.17;;;3.40;;
2858;SDS011;1437;53.250;10.406;2022-07-18T02:42:35;10.10;;;3.30;;
2858;SDS011;1437;53.250;10.406;2022-07-18T02:45:05;5.00;;;3.27;;
2858;SDS011;1437;53.250;10.406;2022-07-18T02:47:33;6.77;;;3.63;;
2858;SDS011;1437;53.250;10.406;2022-07-18T02:50:00;4.10;;;3.37;;
2858;SDS011;1437;53.250;10.406;2022-07-18T02:52:28;4.70;;;3.07;;
2858;SDS011;1437;53.250;10.406;2022-07-18T02:54:56;6.50;;;3.67;;
2858;SDS011;1437;53.250;10.406;2022-07-18T02:57:26;6.00;;;3.53;;
2858;SDS011;1437;53.250;10.406;2022-07-18T02:59:54;5.20;;;3.70;;
2858;SDS011;1437;53.250;10.406;2022-07-18T03:02:24;9.23;;;3.83;;
2858;SDS011;1437;53.250;10.406;2022-07-18T03:04:52;7.27;;;3.63;;
2858;SDS011;1437;53.250;10.406;2022-07-18T03:07:20;4.47;;;3.80;;
2858;SDS011;1437;53.250;10.406;2022-07-18T03:09:47;9.30;;;3.67;;
2858;SDS011;1437;53.250;10.406;2022-07-18T03:12:19;4.23;;;3.27;;
2858;SDS011;1437;53.250;10.406;2022-07-18T03:14:46;6.77;;;3.90;;
2858;SDS011;1437;53.250;10.406;2022-07-18T03:17:14;4.93;;;3.07;;
2858;SDS011;1437;53.250;10.406;2022-07-18T03:19:44;6.07;;;3.43;;
2858;SDS011;1437;53.250;10.406;2022-07-18T03:22:11;5.37;;;3.80;;
2858;SDS011;1437;53.250;10.406;2022-07-18T03:24:41;5.63;;;3.40;;
2858;SDS011;1437;53.250;10.406;2022-07-18T03:27:08;7.07;;;3.93;;
2858;SDS011;1437;53.250;10.406;2022-07-18T03:29:36;5.80;;;3.73;;
2858;SDS011;1437;53.250;10.406;2022-07-18T03:32:04;5.03;;;3.43;;
2858;SDS011;1437;53.250;10.406;2022-07-18T03:34:32;4.53;;;2.70;;
2858;SDS011;1437;53.250;10.406;2022-07-18T03:37:01;6.60;;;3.40;;
2858;SDS011;1437;53.250;10.406;2022-07-18T03:39:28;6.70;;;4.20;;
2858;SDS011;1437;53.250;10.406;2022-07-18T03:41:56;4.73;;;3.20;;
2858;SDS011;1437;53.250;10.406;2022-07-18T03:44:24;6.20;;;3.33;;
2858;SDS011;1437;53.250;10.406;2022-07-18T03:46:51;4.50;;;3.57;;
2858;SDS011;1437;53.250;10.406;2022-07-18T03:49:19;5.57;;;3.30;;
2858;SDS011;1437;53.250;10.406;2022-07-18T03:51:47;5.30;;;3.70;;
2858;SDS011;1437;53.250;10.406;2022-07-18T03:54:16;6.00;;;3.50;;
2858;SDS011;1437;53.250;10.406;2022-07-18T03:56:44;5.00;;;3.20;;
2858;SDS011;1437;53.250;10.406;2022-07-18T03:59:11;8.83;;;3.60;;
2858;SDS011;1437;53.250;10.406;2022-07-18T04:01:39;4.40;;;3.00;;
2858;SDS011;1437;53.250;10.406;2022-07-18T04:04:07;5.27;;;3.90;;
2858;SDS011;1437;53.250;10.406;2022-07-18T04:06:37;5.90;;;3.70;;
2858;SDS011;1437;53.250;10.406;2022-07-18T04:09:07;5.83;;;3.70;;
2858;SDS011;1437;53.250;10.406;2022-07-18T04:11:36;4.10;;;3.40;;
2858;SDS011;1437;53.250;10.406;2022-07-18T04:14:04;7.30;;;3.40;;
2858;SDS011;1437;53.250;10.406;2022-07-18T04:16:33;7.00;;;3.87;;
2858;SDS011;1437;53.250;10.406;2022-07-18T04:19:00;5.50;;;3.50;;
2858;SDS011;1437;53.250;10.406;2022-07-18T04:21:28;6.90;;;3.77;;
2858;SDS011;1437;53.250;10.406;2022-07-18T04:23:55;5.67;;;3.23;;
2858;SDS011;1437;53.250;10.406;2022-07-18T04:26:23;4.93;;;3.40;;
2858;SDS011;1437;53.250;10.406;2022-07-18T04:28:52;3.70;;;3.20;;
2858;SDS011;1437;53.250;10.406;2022-07-18T04:31:20;8.33;;;4.10;;
2858;SDS011;1437;53.250;10.406;2022-07-18T04:33:47;5.70;;;3.60;;
2858;SDS011;1437;53.250;10.406;2022-07-18T04:36:15;6.30;;;3.23;;
2858;SDS011;1437;53.250;10.406;2022-07-18T04:38:43;4.17;;;3.10;;
2858;SDS011;1437;53.250;10.406;2022-07-18T04:41:11;3.70;;;3.10;;
2858;SDS011;1437;53.250;10.406;2022-07-18T04:43:38;7.23;;;3.13;;
2858;SDS011;1437;53.250;10.406;2022-07-18T04:46:08;5.80;;;3.83;;
2858;SDS011;1437;53.250;10.406;2022-07-18T04:48:38;12.03;;;4.67;;
2858;SDS011;1437;53.250;10.406;2022-07-18T04:51:06;5.20;;;3.87;;
2858;SDS011;1437;53.250;10.406;2022-07-18T04:53:34;5.27;;;3.10;;
2858;SDS011;1437;53.250;10.406;2022-07-18T04:56:01;5.43;;;4.03;;
2858;SDS011;1437;53.250;10.406;2022-07-18T04:58:29;4.93;;;3.03;;
2858;SDS011;1437;53.250;10.406;2022-07-18T05:00:57;7.90;;;5.67;;
2858;SDS011;1437;53.250;10.406;2022-07-18T05:03:26;5.37;;;3.77;;
2858;SDS011;1437;53.250;10.406;2022-07-18T05:05:54;5.93;;;3.73;;
2858;SDS011;1437;53.250;10.406;2022-07-18T05:08:21;4.90;;;3.40;;
2858;SDS011;1437;53.250;10.406;2022-07-18T05:10:49;4.40;;;3.20;;
2858;SDS011;1437;53.250;10.406;2022-07-18T05:13:16;6.63;;;3.13;;
2858;SDS011;1437;53.250;10.406;2022-07-18T05:15:44;8.00;;;3.27;;
2858;SDS011;1437;53.250;10.406;2022-07-18T05:18:12;6.30;;;3.10;;
2858;SDS011;1437;53.250;10.406;2022-07-18T05:20:41;7.20;;;3.67;;
2858;SDS011;1437;53.250;10.406;2022-07-18T05:23:09;5.50;;;3.30;;
2858;SDS011;1437;53.250;10.406;2022-07-18T05:25:36;5.37;;;3.13;;
2858;SDS011;1437;53.250;10.406;2022-07-18T05:28:04;11.90;;;3.17;;
2858;SDS011;1437;53.250;10.406;2022-07-18T05:30:32;5.10;;;3.80;;
2858;SDS011;1437;53.250;10.406;2022-07-18T05:33:00;4.87;;;3.20;;
2858;SDS011;1437;53.250;10.406;2022-07-18T05:35:28;6.33;;;3.50;;
2858;SDS011;1437;53.250;10.406;2022-07-18T05:37:57;5.33;;;2.80;;
2858;SDS011;1437;53.250;10.406;2022-07-18T05:40:24;3.10;;;2.30;;
2858;SDS011;1437;53.250;10.406;2022-07-18T05:42:52;4.33;;;3.30;;
2858;SDS011;1437;53.250;10.406;2022-07-18T05:45:20;4.07;;;2.87;;
2858;SDS011;1437;53.250;10.406;2022-07-18T05:47:48;4.57;;;3.00;;
2858;SDS011;1437;53.250;10.406;2022-07-18T05:50:16;3.47;;;2.57;;
2858;SDS011;1437;53.250;10.406;2022-07-18T05:52:44;7.23;;;2.77;;
2858;SDS011;1437;53.250;10.406;2022-07-18T05:55:14;4.80;;;3.20;;
2858;SDS011;1437;53.250;10.406;2022-07-18T05:57:53;11.50;;;3.67;;
2858;SDS011;1437;53.250;10.406;2022-07-18T06:00:21;3.10;;;1.90;;
2858;SDS011;1437;53.250;10.406;2022-07-18T06:02:49;4.00;;;2.90;;
2858;SDS011;1437;53.250;10.406;2022-07-18T06:05:18;3.93;;;2.63;;
2858;SDS011;1437;53.250;10.406;2022-07-18T06:07:46;4.53;;;2.80;;
2858;SDS011;1437;53.250;10.406;2022-07-18T06:10:15;4.27;;;3.10;;
2858;SDS011;1437;53.250;10.406;2022-07-18T06:12:43;5.83;;;2.57;;
2858;SDS011;1437;53.250;10.406;2022-07-18T06:15:12;5.60;;;3.10;;
2858;SDS011;1437;53.250;10.406;2022-07-18T06:17:40;4.90;;;2.83;;
2858;SDS011;1437;53.250;10.406;2022-07-18T06:20:11;4.60;;;2.73;;
2858;SDS011;1437;53.250;10.406;2022-07-18T06:22:39;5.83;;;3.27;;
2858;SDS011;1437;53.250;10.406;2022-07-18T06:25:07;4.20;;;2.60;;
2858;SDS011;1437;53.250;10.406;2022-07-18T06:27:39;6.13;;;3.30;;
2858;SDS011;1437;53.250;10.406;2022-07-18T06:30:07;3.70;;;2.20;;
2858;SDS011;1437;53.250;10.406;2022-07-18T06:32:35;3.93;;;2.60;;
2858;SDS011;1437;53.250;10.406;2022-07-18T06:35:05;5.93;;;2.57;;
2858;SDS011;1437;53.250;10.406;2022-07-18T06:37:33;4.03;;;2.10;;
2858;SDS011;1437;53.250;10.406;2022-07-18T06:40:00;6.03;;;4.37;;
2858;SDS011;1437;53.250;10.406;2022-07-18T06:42:28;3.80;;;2.83;;
2858;SDS011;1437;53.250;10.406;2022-07-18T06:44:57;9.17;;;2.60;;
2858;SDS011;1437;53.250;10.406;2022-07-18T06:47:25;4.90;;;2.37;;
2858;SDS011;1437;53.250;10.406;2022-07-18T06:49:53;4.60;;;2.27;;
2858;SDS011;1437;53.250;10.406;2022-07-18T06:52:23;5.67;;;2.60;;
2858;SDS011;1437;53.250;10.406;2022-07-18T06:54:51;5.70;;;2.67;;
2858;SDS011;1437;53.250;10.406;2022-07-18T06:57:18;3.90;;;2.00;;
2858;SDS011;1437;53.250;10.406;2022-07-18T06:59:46;5.07;;;2.20;;
2858;SDS011;1437;53.250;10.406;2022-07-18T07:02:21;8.17;;;2.50;;
2858;SDS011;1437;53.250;10.406;2022-07-18T07:04:49;5.23;;;2.97;;
2858;SDS011;1437;53.250;10.406;2022-07-18T07:07:19;4.93;;;2.27;;
2858;SDS011;1437;53.250;10.406;2022-07-18T07:09:52;5.13;;;2.20;;
2858;SDS011;1437;53.250;10.406;2022-07-18T07:12:23;5.43;;;2.87;;
2858;SDS011;1437;53.250;10.406;2022-07-18T07:14:51;6.83;;;2.03;;
2858;SDS011;1437;53.250;10.406;2022-07-18T07:17:18;3.13;;;1.87;;
2858;SDS011;1437;53.250;10.406;2022-07-18T07:19:48;6.80;;;2.37;;
2858;SDS011;1437;53.250;10.406;2022-07-18T07:22:15;6.30;;;2.67;;
2858;SDS011;1437;53.250;10.406;2022-07-18T07:24:43;3.50;;;1.90;;
2858;SDS011;1437;53.250;10.406;2022-07-18T07:27:11;4.83;;;2.40;;
2858;SDS011;1437;53.250;10.406;2022-07-18T07:29:39;3.57;;;2.50;;
2858;SDS011;1437;53.250;10.406;2022-07-18T07:32:07;4.50;;;2.50;;
2858;SDS011;1437;53.250;10.406;2022-07-18T07:34:35;4.70;;;2.40;;
2858;SDS011;1437;53.250;10.406;2022-07-18T07:37:04;9.37;;;5.03;;
2858;SDS011;1437;53.250;10.406;2022-07-18T07:39:32;5.03;;;2.50;;
2858;SDS011;1437;53.250;10.406;2022-07-18T07:42:00;4.20;;;2.87;;
2858;SDS011;1437;53.250;10.406;2022-07-18T07:44:31;3.70;;;2.13;;
2858;SDS011;1437;53.250;10.406;2022-07-18T07:46:58;6.27;;;2.97;;
2858;SDS011;1437;53.250;10.406;2022-07-18T07:49:26;4.63;;;2.60;;
2858;SDS011;1437;53.250;10.406;2022-07-18T07:52:00;5.23;;;3.33;;
2858;SDS011;1437;53.250;10.406;2022-07-18T07:54:29;4.80;;;2.70;;
2858;SDS011;1437;53.250;10.406;2022-07-18T07:57:00;4.20;;;2.80;;
2858;SDS011;1437;53.250;10.406;2022-07-18T07:59:28;6.23;;;4.73;;
2858;SDS011;1437;53.250;10.406;2022-07-18T08:01:57;4.57;;;3.40;;
2858;SDS011;1437;53.250;10.406;2022-07-18T08:04:25;4.30;;;3.20;;
2858;SDS011;1437;53.250;10.406;2022-07-18T08:06:55;6.90;;;4.07;;
2858;SDS011;1437;53.250;10.406;2022-07-18T08:09:23;4.27;;;3.27;;
2858;SDS011;1437;53.250;10.406;2022-07-18T08:11:53;6.83;;;3.83;;
2858;SDS011;1437;53.250;10.406;2022-07-18T08:14:20;5.97;;;4.10;;
2858;SDS011;1437;53.250;10.406;2022-07-18T08:16:48;7.57;;;4.20;;
2858;SDS011;1437;53.250;10.406;2022-07-18T08:19:16;5.17;;;3.80;;
2858;SDS011;1437;53.250;10.406;2022-07-18T08:21:44;6.87;;;4.33;;
2858;SDS011;1437;53.250;10.406;2022-07-18T08:24:12;7.90;;;3.93;;
2858;SDS011;1437;53.250;10.406;2022-07-18T08:26:40;6.83;;;4.80;;
2858;SDS011;1437;53.250;10.406;2022-07-18T08:29:09;5.90;;;4.07;;
2858;SDS011;1437;53.250;10.406;2022-07-18T08:31:40;9.23;;;5.50;;
2858;SDS011;1437;53.250;10.406;2022-07-18T08:34:10;6.17;;;4.97;;
2858;SDS011;1437;53.250;10.406;2022-07-18T08:36:42;6.70;;;3.60;;
2858;SDS011;1437;53.250;10.406;2022-07-18T08:39:10;6.07;;;4.30;;
2858;SDS011;1437;53.250;10.406;2022-07-18T08:41:40;6.13;;;4.03;;
2858;SDS011;1437;53.250;10.406;2022-07-18T08:44:13;9.10;;;6.83;;
2858;SDS011;1437;53.250;10.406;2022-07-18T08:46:42;6.53;;;4.10;;
2858;SDS011;1437;53.250;10.406;2022-07-18T08:49:13;7.10;;;4.97;;
2858;SDS011;1437;53.250;10.406;2022-07-18T08:51:41;10.67;;;8.40;;
2858;SDS011;1437;53.250;10.406;2022-07-18T08:54:09;6.20;;;4.50;;
2858;SDS011;1437;53.250;10.406;2022-07-18T08:56:37;7.77;;;4.60;;
2858;SDS011;1437;53.250;10.406;2022-07-18T08:59:06;9.03;;;4.43;;
2858;SDS011;1437;53.250;10.406;2022-07-18T09:01:41;5.43;;;3.87;;
2858;SDS011;1437;53.250;10.406;2022-07-18T09:04:27;6.77;;;4.90;;
2858;SDS011;1437;53.250;10.406;2022-07-18T09:07:00;7.40;;;4.03;;
2858;SDS011;1437;53.250;10.406;2022-07-18T09:09:29;7.23;;;4.20;;
2858;SDS011;1437;53.250;10.406;2022-07-18T09:11:58;6.43;;;3.77;;
2858;SDS011;1437;53.250;10.406;2022-07-18T09:14:27;7.10;;;4.00;;
2858;SDS011;1437;53.250;10.406;2022-07-18T09:17:01;12.70;;;3.60;;
2858;SDS011;1437;53.250;10.406;2022-07-18T09:19:34;6.03;;;3.47;;
2858;SDS011;1437;53.250;10.406;2022-07-18T09:22:12;4.23;;;3.03;;
2858;SDS011;1437;53.250;10.406;2022-07-18T09:24:51;5.67;;;3.37;;
2858;SDS011;1437;53.250;10.406;2022-07-18T09:27:30;4.93;;;3.50;;
2858;SDS011;1437;53.250;10.406;2022-07-18T09:30:13;5.40;;;3.40;;
2858;SDS011;1437;53.250;10.406;2022-07-18T09:33:04;5.40;;;3.63;;
2858;SDS011;1437;53.250;10.406;2022-07-18T09:35:38;6.97;;;4.40;;
2858;SDS011;1437;53.250;10.406;2022-07-18T09:38:16;6.60;;;4.50;;
2858;SDS011;1437;53.250;10.406;2022-07-18T09:40:46;6.03;;;4.10;;
2858;SDS011;1437;53.250;10.406;2022-07-18T09:43:15;6.93;;;4.40;;
2858;SDS011;1437;53.250;10.406;2022-07-18T09:45:44;5.53;;;3.93;;
2858;SDS011;1437;53.250;10.406;2022-07-18T09:48:16;6.07;;;4.20;;
2858;SDS011;1437;53.250;10.406;2022-07-18T09:50:49;6.10;;;4.13;;
2858;SDS011;1437;53.250;10.406;2022-07-18T09:53:25;6.53;;;4.23;;
2858;SDS011;1437;53.250;10.406;2022-07-18T09:56:07;6.10;;;4.30;;
2858;SDS011;1437;53.250;10.406;2022-07-18T09:58:37;5.27;;;4.53;;
2858;SDS011;1437;53.250;10.406;2022-07-18T10:01:06;8.13;;;4.53;;
2858;SDS011;1437;53.250;10.406;2022-07-18T10:03:39;6.70;;;4.47;;
2858;SDS011;1437;53.250;10.406;2022-07-18T10:06:08;6.10;;;4.43;;
2858;SDS011;1437;53.250;10.406;2022-07-18T10:08:41;7.17;;;4.90;;
2858;SDS011;1437;53.250;10.406;2022-07-18T10:11:09;6.23;;;3.90;;
2858;SDS011;1437;53.250;10.406;2022-07-18T10:13:41;5.30;;;4.03;;
2858;SDS011;1437;53.250;10.406;2022-07-18T10:16:10;6.87;;;4.10;;
2858;SDS011;1437;53.250;10.406;2022-07-18T10:18:51;7.13;;;5.10;;
2858;SDS011;1437;53.250;10.406;2022-07-18T10:21:27;6.90;;;4.37;;
2858;SDS011;1437;53.250;10.406;2022-07-18T10:24:06;6.17;;;4.50;;
2858;SDS011;1437;53.250;10.406;2022-07-18T10:26:35;5.67;;;3.80;;
2858;SDS011;1437;53.250;10.406;2022-07-18T10:29:09;5.97;;;3.97;;
2858;SDS011;1437;53.250;10.406;2022-07-18T10:31:39;4.80;;;3.07;;
2858;SDS011;1437;53.250;10.406;2022-07-18T10:34:14;5.33;;;3.67;;
2858;SDS011;1437;53.250;10.406;2022-07-18T10:39:32;7.20;;;4.27;;
2858;SDS011;1437;53.250;10.406;2022-07-18T10:42:16;5.30;;;3.50;;
2858;SDS011;1437;53.250;10.406;2022-07-18T10:44:45;5.10;;;3.73;;
2858;SDS011;1437;53.250;10.406;2022-07-18T10:47:15;6.30;;;3.90;;
2858;SDS011;1437;53.250;10.406;2022-07-18T10:52:58;5.00;;;3.80;;
2858;SDS011;1437;53.250;10.406;2022-07-18T10:55:27;10.40;;;3.90;;
2858;SDS011;1437;53.250;10.406;2022-07-18T11:00:49;4.83;;;3.93;;
2858;SDS011;1437;53.250;10.406;2022-07-18T11:03:26;5.60;;;3.40;;
2858;SDS011;1437;53.250;10.406;2022-07-18T11:05:59;8.20;;;4.10;;
2858;SDS011;1437;53.250;10.406;2022-07-18T11:08:34;5.47;;;3.63;;
2858;SDS011;1437;53.250;10.406;2022-07-18T11:11:22;5.93;;;4.53;;
2858;SDS011;1437;53.250;10.406;2022-07-18T11:13:56;4.87;;;3.07;;
2858;SDS011;1437;53.250;10.406;2022-07-18T11:16:37;4.20;;;2.40;;
2858;SDS011;1437;53.250;10.406;2022-07-18T11:19:23;3.97;;;2.77;;
2858;SDS011;1437;53.250;10.406;2022-07-18T11:21:58;5.80;;;3.50;;
2858;SDS011;1437;53.250;10.406;2022-07-18T11:24:30;4.93;;;3.37;;
2858;SDS011;1437;53.250;10.406;2022-07-18T11:26:59;7.20;;;4.10;;
2858;SDS011;1437;53.250;10.406;2022-07-18T11:29:37;4.37;;;2.93;;
2858;SDS011;1437;53.250;10.406;2022-07-18T11:32:11;6.73;;;3.53;;
2858;SDS011;1437;53.250;10.406;2022-07-18T11:34:54;4.30;;;2.90;;
2858;SDS011;1437;53.250;10.406;2022-07-18T11:37:32;7.00;;;3.60;;
2858;SDS011;1437;53.250;10.406;2022-07-18T11:40:09;4.37;;;2.13;;
2858;SDS011;1437;53.250;10.406;2022-07-18T11:42:37;6.03;;;3.30;;
2858;SDS011;1437;53.250;10.406;2022-07-18T11:45:07;12.43;;;7.10;;
2858;SDS011;1437;53.250;10.406;2022-07-18T11:47:37;9.23;;;7.20;;
2858;SDS011;1437;53.250;10.406;2022-07-18T11:50:06;7.70;;;4.83;;
2858;SDS011;1437;53.250;10.406;2022-07-18T11:52:34;8.90;;;4.10;;
2858;SDS011;1437;53.250;10.406;2022-07-18T11:55:03;6.53;;;4.07;;
2858;SDS011;1437;53.250;10.406;2022-07-18T11:57:35;10.10;;;4.70;;
2858;SDS011;1437;53.250;10.406;2022-07-18T12:00:13;4.63;;;3.70;;
2858;SDS011;1437;53.250;10.406;2022-07-18T12:05:31;6.27;;;4.10;;
2858;SDS011;1437;53.250;10.406;2022-07-18T12:08:26;6.23;;;4.37;;
2858;SDS011;1437;53.250;10.406;2022-07-18T12:11:07;6.97;;;3.20;;
2858;SDS011;1437;53.250;10.406;2022-07-18T12:13:42;8.37;;;5.00;;
2858;SDS011;1437;53.250;10.406;2022-07-18T12:18:53;9.23;;;6.03;;
2858;SDS011;1437;53.250;10.406;2022-07-18T12:21:22;8.00;;;3.93;;
2858;SDS011;1437;53.250;10.406;2022-07-18T12:24:01;5.10;;;3.40;;
2858;SDS011;1437;53.250;10.406;2022-07-18T12:27:12;6.40;;;3.33;;
2858;SDS011;1437;53.250;10.406;2022-07-18T12:29:57;9.70;;;4.90;;
2858;SDS011;1437;53.250;10.406;2022-07-18T12:35:20;6.73;;;3.30;;
2858;SDS011;1437;53.250;10.406;2022-07-18T12:37:53;5.97;;;3.50;;
2858;SDS011;1437;53.250;10.406;2022-07-18T12:40:21;6.40;;;4.20;;
2858;SDS011;1437;53.250;10.406;2022-07-18T12:42:51;7.67;;;3.27;;
2858;SDS011;1437;53.250;10.406;2022-07-18T12:45:47;4.33;;;2.60;;
2858;SDS011;1437;53.250;10.406;2022-07-18T12:48:18;4.73;;;2.73;;
2858;SDS011;1437;53.250;10.406;2022-07-18T12:50:55;5.90;;;2.90;;
2858;SDS011;1437;53.250;10.406;2022-07-18T12:56:42;5.50;;;2.43;;
2858;SDS011;1437;53.250;10.406;2022-07-18T12:59:10;7.43;;;2.47;;
2858;SDS011;1437;53.250;10.406;2022-07-18T13:01:47;3.40;;;2.50;;
2858;SDS011;1437;53.250;10.406;2022-07-18T13:04:17;5.10;;;3.10;;
2858;SDS011;1437;53.250;10.406;2022-07-18T13:06:47;3.23;;;2.37;;
2858;SDS011;1437;53.250;10.406;2022-07-18T13:09:15;7.10;;;4.63;;
2858;SDS011;1437;53.250;10.406;2022-07-18T13:11:44;4.03;;;2.80;;
2858;SDS011;1437;53.250;10.406;2022-07-18T13:14:13;3.60;;;2.17;;
2858;SDS011;1437;53.250;10.406;2022-07-18T13:16:41;4.87;;;2.70;;
2858;SDS011;1437;53.250;10.406;2022-07-18T13:19:12;5.03;;;2.10;;
2858;SDS011;1437;53.250;10.406;2022-07-18T13:21:39;14.20;;;2.70;;
2858;SDS011;1437;53.250;10.406;2022-07-18T13:24:11;3.67;;;1.90;;
2858;SDS011;1437;53.250;10.406;2022-07-18T13:26:42;3.30;;;2.10;;
2858;SDS011;1437;53.250;10.406;2022-07-18T13:29:12;4.00;;;2.43;;
2858;SDS011;1437;53.250;10.406;2022-07-18T13:31:42;5.03;;;2.57;;
2858;SDS011;1437;53.250;10.406;2022-07-18T13:34:12;5.43;;;3.43;;
2858;SDS011;1437;53.250;10.406;2022-07-18T13:36:40;5.43;;;2.93;;
2858;SDS011;1437;53.250;10.406;2022-07-18T13:39:08;3.43;;;1.77;;
2858;SDS011;1437;53.250;10.406;2022-07-18T13:41:36;8.70;;;4.40;;
2858;SDS011;1437;53.250;10.406;2022-07-18T13:44:07;3.33;;;2.00;;
2858;SDS011;1437;53.250;10.406;2022-07-18T13:46:38;3.67;;;2.37;;
2858;SDS011;1437;53.250;10.406;2022-07-18T13:49:08;3.70;;;1.87;;
2858;SDS011;1437;53.250;10.406;2022-07-18T13:51:38;3.27;;;1.80;;
2858;SDS011;1437;53.250;10.406;2022-07-18T13:54:06;6.50;;;3.43;;
2858;SDS011;1437;53.250;10.406;2022-07-18T13:56:34;3.90;;;2.07;;
2858;SDS011;1437;53.250;10.406;2022-07-18T13:59:08;2.43;;;1.57;;
2858;SDS011;1437;53.250;10.406;2022-07-18T14:01:36;3.87;;;1.77;;
2858;SDS011;1437;53.250;10.406;2022-07-18T14:04:04;2.77;;;1.63;;
2858;SDS011;1437;53.250;10.406;2022-07-18T14:06:32;3.50;;;1.57;;
2858;SDS011;1437;53.250;10.406;2022-07-18T14:09:05;4.07;;;1.30;;
2858;SDS011;1437;53.250;10.406;2022-07-18T14:11:34;3.00;;;1.90;;
2858;SDS011;1437;53.250;10.406;2022-07-18T14:14:02;5.60;;;1.73;;
2858;SDS011;1437;53.250;10.406;2022-07-18T14:16:31;3.87;;;1.87;;
2858;SDS011;1437;53.250;10.406;2022-07-18T14:19:03;2.80;;;1.40;;
2858;SDS011;1437;53.250;10.406;2022-07-18T14:21:33;4.20;;;1.90;;
2858;SDS011;1437;53.250;10.406;2022-07-18T14:24:01;4.63;;;1.87;;
2858;SDS011;1437;53.250;10.406;2022-07-18T14:26:32;3.90;;;2.13;;
2858;SDS011;1437;53.250;10.406;2022-07-18T14:29:00;3.10;;;1.47;;
2858;SDS011;1437;53.250;10.406;2022-07-18T14:31:28;3.83;;;1.80;;
2858;SDS011;1437;53.250;10.406;2022-07-18T14:33:58;3.17;;;1.80;;
2858;SDS011;1437;53.250;10.406;2022-07-18T14:36:26;4.60;;;1.90;;
2858;SDS011;1437;53.250;10.406;2022-07-18T14:38:55;4.27;;;1.70;;
2858;SDS011;1437;53.250;10.406;2022-07-18T14:41:25;3.90;;;1.73;;
2858;SDS011;1437;53.250;10.406;2022-07-18T14:43:58;3.50;;;1.63;;
2858;SDS011;1437;53.250;10.406;2022-07-18T14:46:27;4.07;;;1.90;;
2858;SDS011;1437;53.250;10.406;2022-07-18T14:48:58;5.00;;;2.03;;
2858;SDS011;1437;53.250;10.406;2022-07-18T14:51:26;2.33;;;1.40;;
2858;SDS011;1437;53.250;10.406;2022-07-18T14:53:55;4.50;;;1.57;;
2858;SDS011;1437;53.250;10.406;2022-07-18T14:56:22;4.00;;;2.27;;
2858;SDS011;1437;53.250;10.406;2022-07-18T14:58:51;3.50;;;1.90;;
2858;SDS011;1437;53.250;10.406;2022-07-18T15:01:29;2.63;;;1.83;;
2858;SDS011;1437;53.250;10.406;2022-07-18T15:04:01;3.23;;;1.83;;
2858;SDS011;1437;53.250;10.406;2022-07-18T15:06:31;13.00;;;3.00;;
2858;SDS011;1437;53.250;10.406;2022-07-18T15:08:59;4.03;;;2.80;;
2858;SDS011;1437;53.250;10.406;2022-07-18T15:11:30;5.63;;;1.80;;
2858;SDS011;1437;53.250;10.406;2022-07-18T15:13:59;4.37;;;2.00;;
2858;SDS011;1437;53.250;10.406;2022-07-18T15:16:35;3.90;;;2.87;;
2858;SDS011;1437;53.250;10.406;2022-07-18T15:19:05;4.37;;;2.17;;
2858;SDS011;1437;53.250;10.406;2022-07-18T15:21:36;3.33;;;2.13;;
2858;SDS011;1437;53.250;10.406;2022-07-18T15:24:04;3.00;;;1.80;;
2858;SDS011;1437;53.250;10.406;2022-07-18T15:26:35;3.30;;;2.10;;
2858;SDS011;1437;53.250;10.406;2022-07-18T15:29:03;4.10;;;1.97;;
2858;SDS011;1437;53.250;10.406;2022-07-18T15:31:33;3.77;;;2.27;;
2858;SDS011;1437;53.250;10.406;2022-07-18T15:34:04;3.93;;;1.80;;
2858;SDS011;1437;53.250;10.406;2022-07-18T15:36:32;4.07;;;2.43;;
2858;SDS011;1437;53.250;10.406;2022-07-18T15:39:03;3.43;;;1.87;;